Time;durP1;ratioP1;P1;durP2;ratioP2;P2;SDS_P1;SDS_P2;PMS_P1;PMS_P2;Temp;Humidity;BMP_temperature;BMP_pressure;BME280_temperature;BME280_humidity;BME280_pressure;Samples;Min_cycle;Max_cycle;Signal;HPM_P1;HPM_P2
2022/04/09 00:01:27;;;;;;;0.68;0.50;;;3.00;99.90;;;;;;5073933;28;20219;-68
2022/04/09 00:03:54;;;;;;;0.77;0.40;;;2.90;99.90;;;;;;5073732;28;20294;-67
2022/04/09 00:06:20;;;;;;;0.50;0.50;;;3.10;99.90;;;;;;5073552;28;20664;-67
2022/04/09 00:08:49;;;;;;;0.68;0.30;;;3.10;99.90;;;;;;5073821;28;20203;-68
2022/04/09 00:11:16;;;;;;;0.55;0.55;;;3.20;99.90;;;;;;5074275;28;20230;-67
2022/04/09 00:13:42;;;;;;;0.50;0.50;;;3.30;99.90;;;;;;5073533;28;20617;-68
2022/04/09 00:16:09;;;;;;;0.50;0.50;;;3.30;99.90;;;;;;5073601;28;20315;-67
2022/04/09 00:18:36;;;;;;;0.70;0.70;;;3.30;99.90;;;;;;5073758;28;20202;-67
2022/04/09 00:21:03;;;;;;;0.70;0.70;;;3.30;99.90;;;;;;5073407;28;20272;-67
2022/04/09 00:23:30;;;;;;;0.77;0.77;;;3.30;99.90;;;;;;5073638;28;20289;-68
2022/04/09 00:25:58;;;;;;;0.63;0.63;;;3.40;99.90;;;;;;5073594;28;20212;-68
2022/04/09 00:28:25;;;;;;;0.63;0.63;;;3.30;99.90;;;;;;5073539;28;20297;-68
2022/04/09 00:30:51;;;;;;;0.90;0.90;;;3.40;99.90;;;;;;5073152;28;20240;-68
2022/04/09 00:33:18;;;;;;;0.90;0.90;;;3.40;99.90;;;;;;5073395;28;20289;-68
2022/04/09 00:35:45;;;;;;;0.80;0.80;;;3.50;99.90;;;;;;5073128;28;20215;-68
2022/04/09 00:38:12;;;;;;;1.10;1.10;;;3.50;99.90;;;;;;5073470;28;20294;-68
2022/04/09 00:40:39;;;;;;;1.27;1.02;;;3.50;99.90;;;;;;5073355;28;20653;-68
2022/04/09 00:43:07;;;;;;;0.80;0.80;;;3.60;99.90;;;;;;5073292;28;20207;-68
2022/04/09 00:45:34;;;;;;;1.40;1.05;;;3.60;99.90;;;;;;5073161;28;20194;-67
2022/04/09 00:48:01;;;;;;;0.98;0.93;;;3.50;99.90;;;;;;5077405;28;20688;-67
2022/04/09 00:50:27;;;;;;;1.20;1.10;;;3.60;99.90;;;;;;5077298;28;20231;-67
2022/04/09 00:52:59;;;;;;;1.10;1.10;;;3.60;99.90;;;;;;5077555;28;20573;-67
2022/04/09 00:58:14;;;;;;;0.90;0.90;;;3.40;99.90;;;;;;5076945;28;20676;-67
2022/04/09 01:00:41;;;;;;;1.08;0.98;;;3.50;99.90;;;;;;5077324;28;20227;-67
2022/04/09 01:03:10;;;;;;;0.80;0.80;;;3.40;99.90;;;;;;5077189;28;20210;-68
2022/04/09 01:05:38;;;;;;;1.10;1.00;;;3.50;99.90;;;;;;5077121;28;20675;-68
2022/04/09 01:08:05;;;;;;;0.60;0.60;;;3.50;99.90;;;;;;5077195;28;20211;-67
2022/04/09 01:10:32;;;;;;;0.70;0.70;;;3.50;99.90;;;;;;5077138;28;20226;-68
2022/04/09 01:13:00;;;;;;;0.98;0.98;;;3.50;99.90;;;;;;5076945;28;20229;-68
2022/04/09 01:15:28;;;;;;;1.40;0.80;;;3.50;99.90;;;;;;5076963;28;20209;-67
2022/04/09 01:17:55;;;;;;;0.77;0.77;;;3.60;99.90;;;;;;5076977;28;20538;-68
2022/04/09 01:20:26;;;;;;;0.98;0.98;;;3.60;99.90;;;;;;5076808;28;20233;-67
2022/04/09 01:22:54;;;;;;;1.40;1.30;;;3.70;99.90;;;;;;5076922;28;20202;-67
2022/04/09 01:25:21;;;;;;;1.05;1.00;;;3.70;99.90;;;;;;5076516;28;20206;-68
2022/04/09 01:27:48;;;;;;;1.30;1.20;;;3.70;99.90;;;;;;5076676;28;20213;-68
2022/04/09 01:30:16;;;;;;;1.40;1.30;;;3.70;99.90;;;;;;5076261;28;20708;-68
2022/04/09 01:32:43;;;;;;;2.35;2.03;;;3.70;99.90;;;;;;5076353;28;20207;-68
2022/04/09 01:35:10;;;;;;;2.15;1.95;;;3.70;99.90;;;;;;5076475;28;20293;-67
2022/04/09 01:37:37;;;;;;;1.83;1.70;;;3.70;99.90;;;;;;5076538;28;20226;-67
2022/04/09 01:40:06;;;;;;;4.72;3.25;;;3.80;99.90;;;;;;5076491;28;20222;-68
2022/04/09 01:42:33;;;;;;;2.60;2.33;;;3.90;99.90;;;;;;5076532;28;20206;-68
2022/04/09 01:45:00;;;;;;;2.33;2.22;;;3.90;99.90;;;;;;5076222;28;20206;-67
2022/04/09 01:47:26;;;;;;;2.55;2.35;;;3.90;99.90;;;;;;5076363;28;20289;-67
2022/04/09 01:49:53;;;;;;;2.05;1.63;;;4.00;99.90;;;;;;5076229;28;20396;-68
2022/04/09 01:52:20;;;;;;;2.35;2.20;;;4.00;99.90;;;;;;5076397;28;20203;-68
2022/04/09 01:54:47;;;;;;;2.55;2.35;;;4.00;99.90;;;;;;5076131;28;20209;-67
2022/04/09 01:57:15;;;;;;;5.03;3.33;;;4.00;99.90;;;;;;5075880;28;20738;-68
2022/04/09 01:59:43;;;;;;;2.25;2.08;;;4.00;99.90;;;;;;5075664;28;20219;-68
2022/04/09 02:02:10;;;;;;;3.45;2.58;;;3.90;99.90;;;;;;5076162;28;20206;-68
2022/04/09 02:04:37;;;;;;;3.10;2.55;;;4.00;99.90;;;;;;5075931;28;20202;-68
2022/04/09 02:07:04;;;;;;;3.00;2.65;;;4.00;99.90;;;;;;5076094;28;20289;-68
2022/04/09 02:09:32;;;;;;;2.75;2.55;;;4.00;99.90;;;;;;5075797;28;20252;-67
2022/04/09 02:11:59;;;;;;;3.15;2.85;;;4.10;99.90;;;;;;5076086;28;20248;-67
2022/04/09 02:14:28;;;;;;;4.30;2.83;;;4.10;99.90;;;;;;5075490;28;20210;-68
2022/04/09 02:16:54;;;;;;;4.60;2.25;;;4.10;99.90;;;;;;5075593;28;20715;-67
2022/04/09 02:19:21;;;;;;;2.70;2.47;;;4.10;99.90;;;;;;5075874;28;20203;-67
2022/04/09 02:21:48;;;;;;;2.13;1.98;;;4.20;99.90;;;;;;5075492;28;20233;-67
2022/04/09 02:24:15;;;;;;;2.95;2.45;;;4.10;99.90;;;;;;5075484;28;20293;-67
2022/04/09 02:26:42;;;;;;;5.00;3.28;;;4.00;99.90;;;;;;5075733;28;20199;-68
2022/04/09 02:29:09;;;;;;;3.38;2.67;;;4.00;99.90;;;;;;5075524;28;20580;-67
2022/04/09 02:31:38;;;;;;;2.80;2.60;;;4.10;99.90;;;;;;5075662;28;20329;-67
2022/04/09 02:34:05;;;;;;;5.50;3.80;;;4.10;99.90;;;;;;5075438;28;20628;-67
2022/04/09 02:36:33;;;;;;;3.83;3.40;;;4.10;99.90;;;;;;5075432;28;20250;-68
2022/04/09 02:38:59;;;;;;;4.85;3.30;;;4.20;99.90;;;;;;5075955;28;20203;-67
2022/04/09 02:41:28;;;;;;;4.20;3.40;;;4.20;99.90;;;;;;5075353;28;20313;-68
2022/04/09 02:43:55;;;;;;;5.85;4.50;;;4.20;99.90;;;;;;5075218;28;20208;-68
2022/04/09 02:46:22;;;;;;;4.85;3.45;;;4.30;99.90;;;;;;5075330;28;20199;-68
2022/04/09 02:48:50;;;;;;;5.75;4.22;;;4.20;99.90;;;;;;5075088;28;20198;-68
2022/04/09 02:51:17;;;;;;;5.82;3.60;;;4.20;99.90;;;;;;5075268;28;20223;-68
2022/04/09 02:53:44;;;;;;;3.92;3.50;;;4.20;99.90;;;;;;5074944;28;20199;-68
2022/04/09 02:56:11;;;;;;;5.38;4.20;;;4.20;99.90;;;;;;5074990;28;20226;-68
2022/04/09 02:58:38;;;;;;;3.60;3.30;;;4.20;99.90;;;;;;5074813;28;20209;-68
2022/04/09 03:01:05;;;;;;;4.65;3.70;;;4.20;99.90;;;;;;5074690;28;20730;-67
2022/04/09 03:03:32;;;;;;;4.03;3.60;;;4.20;99.90;;;;;;5074789;28;20586;-68
2022/04/09 03:06:00;;;;;;;5.20;4.03;;;4.20;99.90;;;;;;5074976;28;20229;-68
2022/04/09 03:08:27;;;;;;;4.28;3.40;;;4.20;99.90;;;;;;5074815;28;20297;-68
2022/04/09 03:10:54;;;;;;;3.75;3.35;;;4.20;99.90;;;;;;5073680;28;20313;-68
2022/04/09 03:13:21;;;;;;;4.00;3.33;;;4.10;99.90;;;;;;5074308;28;20217;-68
2022/04/09 03:15:48;;;;;;;4.75;3.95;;;4.20;99.90;;;;;;5075128;28;20203;-68
2022/04/09 03:18:15;;;;;;;3.72;3.42;;;4.20;99.90;;;;;;5074643;28;20222;-67
2022/04/09 03:20:42;;;;;;;3.92;2.08;;;4.20;99.90;;;;;;5074505;28;20226;-68
2022/04/09 03:23:10;;;;;;;3.70;3.40;;;4.20;99.90;;;;;;5074522;28;20207;-68
2022/04/09 03:25:37;;;;;;;4.20;3.65;;;4.20;99.90;;;;;;5074582;28;20642;-68
2022/04/09 03:28:04;;;;;;;4.22;3.58;;;4.20;99.90;;;;;;5074470;28;20195;-68
2022/04/09 03:30:31;;;;;;;3.70;3.35;;;4.20;99.90;;;;;;5074081;28;20234;-68
2022/04/09 03:32:58;;;;;;;4.20;3.80;;;4.30;99.90;;;;;;5074338;28;20203;-69
2022/04/09 03:35:25;;;;;;;4.00;3.40;;;4.30;99.90;;;;;;5074346;28;20203;-68
2022/04/09 03:37:52;;;;;;;4.35;3.83;;;4.30;99.90;;;;;;5074141;28;20230;-69
2022/04/09 03:40:20;;;;;;;5.00;4.15;;;4.40;99.90;;;;;;5074251;28;20253;-68
2022/04/09 03:42:47;;;;;;;4.70;4.30;;;4.40;99.90;;;;;;5074253;28;20203;-68
2022/04/09 03:45:14;;;;;;;8.30;4.70;;;4.40;99.90;;;;;;5074047;28;20289;-68
2022/04/09 03:47:41;;;;;;;7.47;5.22;;;4.50;99.90;;;;;;5074129;28;20194;-68
2022/04/09 03:50:08;;;;;;;5.22;4.40;;;4.50;99.90;;;;;;5073953;28;20309;-68
2022/04/09 03:52:35;;;;;;;3.15;2.85;;;4.50;99.90;;;;;;5073849;28;20217;-68
2022/04/09 03:55:02;;;;;;;7.05;5.85;;;4.50;99.90;;;;;;5074053;28;20292;-68
2022/04/09 03:57:31;;;;;;;7.68;6.80;;;4.50;99.90;;;;;;5073751;28;20704;-68
2022/04/09 03:59:57;;;;;;;8.82;7.15;;;4.50;99.90;;;;;;5073725;28;20313;-68
2022/04/09 04:02:26;;;;;;;9.27;7.30;;;4.50;99.90;;;;;;5073974;28;20203;-68
2022/04/09 04:04:52;;;;;;;10.40;7.35;;;4.50;99.90;;;;;;5073451;28;20234;-68
2022/04/09 04:07:22;;;;;;;11.38;8.43;;;4.60;99.90;;;;;;5073596;28;20213;-68
2022/04/09 04:09:50;;;;;;;11.63;8.48;;;4.60;99.90;;;;;;5073975;28;20553;-68
2022/04/09 04:12:17;;;;;;;13.38;8.60;;;4.70;99.90;;;;;;5073870;28;20206;-68
2022/04/09 04:14:45;;;;;;;10.82;7.80;;;4.70;99.90;;;;;;5073569;28;20293;-68
2022/04/09 04:17:12;;;;;;;11.90;8.70;;;4.60;99.90;;;;;;5073635;28;20226;-68
2022/04/09 04:19:39;;;;;;;11.73;8.25;;;4.60;99.90;;;;;;5073616;28;20676;-68
2022/04/09 04:22:07;;;;;;;13.43;8.90;;;4.60;99.90;;;;;;5073064;28;20289;-68
2022/04/09 04:24:37;;;;;;;11.20;8.70;;;4.60;99.90;;;;;;5073524;28;20573;-68
2022/04/09 04:27:05;;;;;;;13.23;8.80;;;4.60;99.90;;;;;;5073608;28;20198;-68
2022/04/09 04:29:32;;;;;;;12.57;8.63;;;4.60;99.90;;;;;;5073300;28;20584;-68
2022/04/09 04:32:01;;;;;;;14.18;9.70;;;4.50;99.90;;;;;;5073564;28;20230;-68
2022/04/09 04:34:28;;;;;;;9.05;6.60;;;4.50;99.90;;;;;;5073389;28;20203;-68
2022/04/09 04:36:55;;;;;;;12.82;9.80;;;4.40;99.90;;;;;;5073466;28;20247;-68
2022/04/09 04:39:22;;;;;;;20.70;12.93;;;4.40;99.90;;;;;;5073479;28;20206;-68
2022/04/09 04:41:49;;;;;;;16.48;10.02;;;4.40;99.90;;;;;;5073474;28;20273;-68
2022/04/09 04:44:16;;;;;;;14.30;10.63;;;4.40;99.90;;;;;;5073327;28;20211;-68
2022/04/09 04:46:42;;;;;;;14.02;10.05;;;4.40;99.90;;;;;;5073385;28;20203;-68
2022/04/09 04:49:11;;;;;;;13.65;10.20;;;4.40;99.90;;;;;;5073420;28;20226;-68
2022/04/09 04:51:37;;;;;;;15.07;10.48;;;4.40;99.90;;;;;;5073423;28;20649;-68
2022/04/09 04:54:05;;;;;;;15.98;9.85;;;4.40;99.90;;;;;;5073119;28;20293;-68
2022/04/09 04:56:32;;;;;;;10.32;7.65;;;4.50;99.90;;;;;;5073254;28;20248;-68
2022/04/09 04:58:59;;;;;;;13.80;8.85;;;4.40;99.90;;;;;;5073173;28;20212;-67
2022/04/09 05:01:26;;;;;;;14.60;9.30;;;4.40;99.90;;;;;;5073295;28;20313;-68
2022/04/09 05:03:53;;;;;;;13.45;10.20;;;4.40;99.90;;;;;;5072911;28;20202;-67
2022/04/09 05:06:21;;;;;;;15.38;10.15;;;4.40;99.90;;;;;;5073518;28;20371;-68
2022/04/09 05:08:48;;;;;;;12.63;9.30;;;4.50;99.90;;;;;;5073205;28;20225;-68
2022/04/09 05:11:15;;;;;;;14.02;9.38;;;4.60;99.90;;;;;;5073142;28;20226;-68
2022/04/09 05:13:42;;;;;;;15.10;9.95;;;4.60;99.90;;;;;;5073053;28;20272;-68
2022/04/09 05:16:08;;;;;;;12.57;8.68;;;4.70;99.90;;;;;;5073141;28;20202;-68
2022/04/09 05:18:35;;;;;;;12.98;9.88;;;4.70;99.90;;;;;;5072841;28;20227;-68
2022/04/09 05:21:02;;;;;;;12.60;9.30;;;4.70;99.90;;;;;;5073109;28;20226;-68
2022/04/09 05:23:30;;;;;;;14.60;9.77;;;4.80;99.90;;;;;;5072880;28;20209;-68
2022/04/09 05:25:57;;;;;;;11.55;8.75;;;4.80;99.90;;;;;;5073007;28;20564;-68
2022/04/09 05:28:24;;;;;;;14.40;9.27;;;4.90;99.90;;;;;;5072998;28;20203;-68
2022/04/09 05:30:51;;;;;;;13.00;9.27;;;4.80;99.90;;;;;;5072633;28;20233;-68
2022/04/09 05:33:19;;;;;;;14.13;9.93;;;4.80;99.90;;;;;;5073904;28;20234;-68
2022/04/09 05:35:46;;;;;;;13.88;9.73;;;4.80;99.90;;;;;;5076631;28;20203;-68
2022/04/09 05:38:13;;;;;;;14.30;9.93;;;4.80;99.90;;;;;;5076530;28;20253;-67
2022/04/09 05:40:42;;;;;;;13.20;9.50;;;4.80;99.90;;;;;;5076391;28;20223;-68
2022/04/09 05:43:08;;;;;;;15.38;10.20;;;4.90;99.90;;;;;;5076388;28;20238;-68
2022/04/09 05:45:36;;;;;;;12.00;8.85;;;4.80;99.90;;;;;;5076259;28;20207;-67
2022/04/09 05:48:03;;;;;;;11.32;9.07;;;4.80;99.90;;;;;;5076308;28;20202;-68
2022/04/09 05:50:31;;;;;;;13.32;9.10;;;4.80;99.90;;;;;;5076366;28;20229;-68
2022/04/09 05:52:57;;;;;;;11.15;8.60;;;4.90;99.90;;;;;;5076074;28;20669;-70
2022/04/09 05:55:24;;;;;;;11.93;8.68;;;4.90;99.90;;;;;;5076213;28;20306;-68
2022/04/09 05:57:53;;;;;;;11.45;8.75;;;4.90;99.90;;;;;;5076199;28;20246;-68
2022/04/09 06:00:20;;;;;;;10.95;8.90;;;5.00;99.90;;;;;;5076074;28;20227;-68
2022/04/09 06:02:47;;;;;;;10.55;8.15;;;5.10;99.90;;;;;;5076250;28;20199;-68
2022/04/09 06:05:14;;;;;;;8.48;7.68;;;5.10;99.90;;;;;;5075957;28;20209;-67
2022/04/09 06:07:40;;;;;;;13.10;9.50;;;4.90;99.90;;;;;;5075972;28;20199;-67
2022/04/09 06:10:10;;;;;;;13.32;8.80;;;4.90;99.90;;;;;;5075763;28;20738;-67
2022/04/09 06:12:37;;;;;;;12.30;8.45;;;5.00;99.90;;;;;;5076035;28;20206;-67
2022/04/09 06:15:06;;;;;;;11.70;9.35;;;5.00;99.90;;;;;;5076090;28;20207;-68
2022/04/09 06:17:33;;;;;;;11.90;8.60;;;5.00;99.90;;;;;;5076319;28;20241;-68
2022/04/09 06:20:00;;;;;;;11.88;8.55;;;5.10;99.90;;;;;;5076454;28;20697;-68
2022/04/09 06:22:27;;;;;;;11.23;8.57;;;5.00;99.90;;;;;;5076531;28;20302;-68
2022/04/09 06:24:54;;;;;;;9.25;7.75;;;5.00;99.90;;;;;;5076374;28;20290;-68
2022/04/09 06:27:21;;;;;;;13.02;10.15;;;4.90;99.90;;;;;;5076160;28;20657;-68
2022/04/09 06:29:47;;;;;;;9.93;7.80;;;4.90;99.90;;;;;;5075727;28;20211;-67
2022/04/09 06:32:16;;;;;;;10.98;8.00;;;4.90;99.90;;;;;;5075469;28;20310;-67
2022/04/09 06:34:42;;;;;;;9.73;8.00;;;4.80;99.90;;;;;;5075273;28;20294;-67
2022/04/09 06:37:09;;;;;;;9.73;7.45;;;4.80;99.90;;;;;;5075452;28;20206;-67
2022/04/09 06:39:36;;;;;;;8.85;6.72;;;4.90;99.90;;;;;;5075484;28;20206;-68
2022/04/09 06:42:03;;;;;;;10.55;7.85;;;4.80;99.90;;;;;;5075591;28;20210;-67
2022/04/09 06:44:30;;;;;;;10.18;7.40;;;4.80;99.90;;;;;;5075022;28;20676;-67
2022/04/09 06:46:57;;;;;;;11.93;7.43;;;4.90;99.90;;;;;;5075662;28;20203;-68
2022/04/09 06:49:25;;;;;;;10.98;8.20;;;5.00;99.90;;;;;;5075468;28;20201;-68
2022/04/09 06:51:52;;;;;;;8.98;5.40;;;5.10;99.90;;;;;;5075798;28;20222;-68
2022/04/09 06:54:20;;;;;;;10.30;7.63;;;5.20;99.90;;;;;;5075754;28;20207;-68
2022/04/09 06:56:47;;;;;;;9.65;7.15;;;5.20;99.90;;;;;;5075515;28;20230;-68
2022/04/09 06:59:14;;;;;;;9.10;7.72;;;5.30;99.90;;;;;;5075466;28;20626;-67
2022/04/09 07:01:41;;;;;;;8.80;7.10;;;5.50;99.90;;;;;;5075015;28;20223;-67
2022/04/09 07:04:08;;;;;;;7.93;6.68;;;5.60;99.90;;;;;;5074692;28;20575;-68
2022/04/09 07:06:36;;;;;;;11.32;7.40;;;5.50;99.90;;;;;;5074760;28;20203;-68
2022/04/09 07:09:03;;;;;;;11.68;6.60;;;5.50;99.90;;;;;;5074707;28;20199;-67
2022/04/09 07:11:30;;;;;;;9.52;6.95;;;5.60;99.90;;;;;;5074533;28;20222;-67
2022/04/09 07:13:56;;;;;;;11.30;7.22;;;5.80;99.90;;;;;;5074529;28;20570;-68
2022/04/09 07:16:23;;;;;;;9.05;7.05;;;5.80;99.90;;;;;;5074738;28;20209;-68
2022/04/09 07:18:50;;;;;;;10.45;7.18;;;6.00;99.90;;;;;;5074542;28;20634;-68
2022/04/09 07:21:17;;;;;;;7.03;6.30;;;6.20;99.90;;;;;;5074626;28;20553;-67
2022/04/09 07:23:45;;;;;;;10.13;7.35;;;6.20;99.90;;;;;;5074370;28;20205;-67
2022/04/09 07:26:12;;;;;;;8.20;6.78;;;6.10;99.90;;;;;;5074547;28;20199;-68
2022/04/09 07:28:38;;;;;;;10.07;6.90;;;6.10;99.90;;;;;;5074448;28;20215;-68
2022/04/09 07:31:05;;;;;;;7.72;5.95;;;6.20;99.90;;;;;;5074355;28;20733;-68
2022/04/09 07:33:32;;;;;;;8.23;6.13;;;6.20;99.90;;;;;;5074008;28;20203;-67
2022/04/09 07:35:59;;;;;;;14.70;10.55;;;6.20;99.90;;;;;;5074138;28;20206;-67
2022/04/09 07:38:26;;;;;;;8.27;7.10;;;6.40;99.90;;;;;;5074257;28;20284;-67
2022/04/09 07:40:54;;;;;;;9.32;6.72;;;6.50;99.90;;;;;;5074207;28;20226;-68
2022/04/09 07:43:21;;;;;;;11.23;6.47;;;6.60;99.90;;;;;;5074157;28;20205;-68
2022/04/09 07:45:49;;;;;;;7.15;6.43;;;6.80;99.90;;;;;;5074121;28;20203;-67
2022/04/09 07:48:16;;;;;;;11.05;7.65;;;6.80;99.90;;;;;;5074138;28;20574;-67
2022/04/09 07:50:43;;;;;;;9.18;6.80;;;6.80;99.90;;;;;;5073869;28;20230;-68
2022/04/09 07:53:11;;;;;;;7.38;6.25;;;6.90;99.90;;;;;;5073813;28;20203;-67
2022/04/09 07:55:38;;;;;;;9.43;6.93;;;7.00;99.90;;;;;;5073395;28;20198;-67
2022/04/09 07:58:06;;;;;;;9.90;7.47;;;6.90;99.90;;;;;;5073870;28;20233;-68
2022/04/09 08:00:34;;;;;;;9.13;6.40;;;7.00;99.90;;;;;;5074206;28;20281;-67
2022/04/09 08:03:01;;;;;;;6.35;5.45;;;7.20;99.90;;;;;;5073789;28;20198;-68
2022/04/09 08:05:28;;;;;;;9.10;6.40;;;7.30;99.90;;;;;;5073878;28;20568;-67
2022/04/09 08:07:55;;;;;;;6.50;4.55;;;7.40;99.90;;;;;;5073754;28;20679;-68
2022/04/09 08:10:21;;;;;;;7.00;5.70;;;7.40;99.90;;;;;;5073700;28;20313;-68
2022/04/09 08:12:51;;;;;;;9.88;6.25;;;7.20;99.90;;;;;;5073791;28;20564;-67
2022/04/09 08:15:19;;;;;;;6.63;5.75;;;7.20;99.90;;;;;;5073585;28;20203;-67
2022/04/09 08:17:46;;;;;;;8.90;5.55;;;7.10;99.90;;;;;;5073618;28;20591;-67
2022/04/09 08:20:14;;;;;;;10.13;6.15;;;7.10;99.90;;;;;;5073546;28;20219;-68
2022/04/09 08:22:41;;;;;;;7.40;5.35;;;7.10;99.90;;;;;;5073428;28;20214;-68
2022/04/09 08:25:09;;;;;;;10.43;5.78;;;7.10;99.90;;;;;;5073522;28;20203;-67
2022/04/09 08:27:36;;;;;;;9.50;6.22;;;7.00;99.90;;;;;;5073556;28;20213;-68
2022/04/09 08:30:04;;;;;;;7.05;5.60;;;7.00;99.90;;;;;;5073319;28;20240;-67
2022/04/09 08:32:32;;;;;;;7.25;5.47;;;7.00;99.90;;;;;;5073523;28;20238;-67
2022/04/09 08:35:00;;;;;;;12.73;6.28;;;7.00;99.90;;;;;;5073272;28;20207;-68
2022/04/09 08:37:26;;;;;;;9.75;5.20;;;7.00;99.90;;;;;;5073443;28;20202;-68
2022/04/09 08:39:54;;;;;;;9.05;5.50;;;6.80;99.90;;;;;;5073309;28;20230;-68
2022/04/09 08:42:22;;;;;;;6.60;5.70;;;6.80;99.90;;;;;;5073409;28;20267;-68
2022/04/09 08:44:49;;;;;;;8.80;4.78;;;6.80;99.90;;;;;;5073195;28;20202;-68
2022/04/09 08:47:16;;;;;;;8.40;5.25;;;6.90;99.90;;;;;;5073316;28;20207;-68
2022/04/09 08:49:47;;;;;;;7.82;5.47;;;6.80;99.90;;;;;;5073347;28;20209;-68
2022/04/09 08:52:15;;;;;;;7.93;5.95;;;6.60;99.90;;;;;;5073128;28;20183;-68
2022/04/09 08:54:42;;;;;;;8.65;5.40;;;6.60;99.90;;;;;;5073212;28;20252;-67
2022/04/09 08:57:09;;;;;;;7.07;5.90;;;6.60;99.90;;;;;;5073110;28;20211;-68
2022/04/09 08:59:36;;;;;;;7.65;5.72;;;6.70;99.90;;;;;;5073172;28;20226;-68
2022/04/09 09:02:04;;;;;;;8.00;5.43;;;6.90;99.90;;;;;;5073373;28;20210;-67
2022/04/09 09:04:31;;;;;;;9.80;5.80;;;6.80;99.90;;;;;;5072949;28;20565;-67
2022/04/09 09:07:18;;;;;;;5.80;5.15;;;6.80;99.90;;;;;;5073840;28;20202;-68
2022/04/09 09:09:45;;;;;;;5.95;5.18;;;7.10;99.90;;;;;;5076969;28;20202;-68
2022/04/09 09:12:12;;;;;;;6.82;4.95;;;7.30;99.90;;;;;;5077232;28;20206;-68
2022/04/09 09:14:46;;;;;;;6.82;3.63;;;7.40;99.90;;;;;;5076843;28;20213;-67
2022/04/09 09:17:12;;;;;;;6.10;5.50;;;7.60;99.90;;;;;;5077220;28;20660;-68
2022/04/09 09:19:45;;;;;;;7.18;4.43;;;7.80;99.90;;;;;;5076871;28;20214;-68
2022/04/09 09:22:13;;;;;;;7.15;4.82;;;8.10;99.90;;;;;;5076718;28;20668;-67
2022/04/09 09:24:40;;;;;;;8.73;5.85;;;8.20;99.90;;;;;;5076703;28;20209;-67
2022/04/09 09:27:07;;;;;;;5.18;4.68;;;8.70;99.90;;;;;;5076856;28;20225;-68
2022/04/09 09:29:36;;;;;;;6.18;4.85;;;9.10;99.90;;;;;;5076417;28;20225;-68
2022/04/09 09:32:05;;;;;;;5.15;4.53;;;9.50;99.90;;;;;;5076492;28;20206;-68
2022/04/09 09:34:32;;;;;;;5.68;4.40;;;9.40;99.90;;;;;;5076579;28;20209;-68
2022/04/09 09:36:59;;;;;;;7.63;4.65;;;9.70;99.90;;;;;;5076502;28;20327;-68
2022/04/09 09:39:28;;;;;;;7.32;5.03;;;10.00;99.90;;;;;;5076571;28;20247;-68
2022/04/09 09:41:56;;;;;;;4.72;4.22;;;10.10;99.90;;;;;;5076587;28;20652;-68
2022/04/09 09:44:24;;;;;;;6.90;4.78;;;10.40;98.70;;;;;;5076161;28;20209;-68
2022/04/09 09:46:52;;;;;;;5.50;4.47;;;10.50;97.40;;;;;;5076254;28;20657;-68
2022/04/09 09:49:21;;;;;;;4.40;3.95;;;11.70;98.70;;;;;;5076452;28;20202;-68
2022/04/09 09:52:03;;;;;;;10.98;4.30;;;13.10;92.90;;;;;;5076822;28;20222;-68
2022/04/09 09:54:31;;;;;;;7.43;4.50;;;12.90;88.40;;;;;;5075898;28;20668;-68
2022/04/09 09:56:59;;;;;;;8.05;4.30;;;11.90;90.60;;;;;;5076277;28;20205;-68
2022/04/09 09:59:28;;;;;;;4.90;4.03;;;12.20;92.10;;;;;;5076183;28;20229;-68
2022/04/09 10:01:56;;;;;;;4.88;3.78;;;12.80;88.80;;;;;;5076216;28;20227;-68
2022/04/09 10:04:23;;;;;;;4.43;3.80;;;12.30;88.40;;;;;;5076012;28;20209;-68
2022/04/09 10:06:51;;;;;;;4.88;3.60;;;11.90;88.90;;;;;;5075879;28;20253;-68
2022/04/09 10:09:19;;;;;;;4.70;4.22;;;11.70;88.70;;;;;;5076067;28;20244;-68
2022/04/09 10:11:51;;;;;;;4.57;4.18;;;11.70;90.10;;;;;;5075658;28;20226;-68
2022/04/09 10:14:22;;;;;;;5.90;3.72;;;12.20;90.00;;;;;;5075854;28;20209;-68
2022/04/09 10:16:52;;;;;;;3.30;3.00;;;11.80;86.90;;;;;;5075854;28;20667;-68
2022/04/09 10:19:20;;;;;;;5.30;3.90;;;12.20;85.00;;;;;;5075301;28;20219;-68
2022/04/09 10:21:50;;;;;;;6.97;3.80;;;11.60;85.30;;;;;;5075907;28;20282;-68
2022/04/09 10:24:19;;;;;;;5.93;3.78;;;10.80;85.90;;;;;;5075716;28;20207;-69
2022/04/09 10:26:48;;;;;;;4.43;3.75;;;10.10;89.60;;;;;;5075564;28;20207;-68
2022/04/09 10:29:15;;;;;;;6.20;4.22;;;9.40;92.60;;;;;;5075417;28;20207;-68
2022/04/09 10:31:43;;;;;;;6.07;4.43;;;9.20;94.20;;;;;;5075358;28;20226;-68
2022/04/09 10:34:11;;;;;;;6.13;4.00;;;9.40;93.20;;;;;;5075361;28;20260;-68
2022/04/09 10:37:02;;;;;;;4.22;3.25;;;10.90;90.90;;;;;;5075521;28;20614;-68
2022/04/09 10:39:36;;;;;;;6.05;3.60;;;10.90;87.90;;;;;;5075461;28;20222;-68
2022/04/09 10:42:05;;;;;;;3.75;3.42;;;10.90;89.70;;;;;;5075623;28;20191;-68
2022/04/09 10:44:36;;;;;;;3.60;3.30;;;12.10;89.40;;;;;;5075092;28;20309;-68
2022/04/09 10:47:04;;;;;;;3.80;3.22;;;12.00;85.70;;;;;;5075336;28;20206;-68
2022/04/09 10:49:31;;;;;;;4.88;4.15;;;11.20;86.70;;;;;;5075383;28;20198;-68
2022/04/09 10:52:11;;;;;;;9.00;3.90;;;10.60;90.20;;;;;;5075261;28;20634;-68
2022/04/09 10:54:39;;;;;;;4.28;3.30;;;10.40;91.70;;;;;;5075072;28;20252;-68
2022/04/09 10:57:24;;;;;;;4.80;3.33;;;10.00;90.60;;;;;;5075179;28;20203;-68
2022/04/09 10:59:58;;;;;;;4.03;3.13;;;9.40;90.30;;;;;;5074778;28;20711;-68
2022/04/09 11:02:25;;;;;;;7.97;3.53;;;9.40;91.20;;;;;;5074871;28;20660;-68
2022/04/09 11:04:53;;;;;;;5.00;3.80;;;9.30;91.10;;;;;;5074867;28;20245;-68
2022/04/09 11:07:21;;;;;;;5.07;3.60;;;9.20;92.00;;;;;;5074982;28;20198;-68
2022/04/09 11:09:51;;;;;;;7.15;4.25;;;9.00;92.40;;;;;;5074776;28;20203;-68
2022/04/09 11:12:21;;;;;;;4.55;3.38;;;8.80;92.10;;;;;;5074896;28;20206;-68
2022/04/09 11:14:50;;;;;;;5.72;3.58;;;8.50;92.40;;;;;;5074675;28;20207;-68
2022/04/09 11:17:28;;;;;;;4.80;2.90;;;9.40;93.10;;;;;;5074746;28;20582;-68
2022/04/09 11:19:56;;;;;;;4.78;3.40;;;10.60;89.10;;;;;;5074515;28;20704;-68
2022/04/09 11:22:31;;;;;;;4.35;3.17;;;11.20;87.10;;;;;;5074670;28;20564;-68
2022/04/09 11:24:58;;;;;;;7.05;4.82;;;11.80;81.80;;;;;;5074496;28;20198;-68
2022/04/09 11:27:28;;;;;;;4.20;3.83;;;12.50;77.00;;;;;;5074415;28;20294;-68
2022/04/09 11:29:55;;;;;;;4.28;3.55;;;11.20;76.80;;;;;;5074014;28;20242;-69
2022/04/09 11:32:23;;;;;;;4.07;3.20;;;10.80;83.20;;;;;;5073932;28;20594;-68
2022/04/09 11:34:52;;;;;;;4.53;3.88;;;11.30;83.60;;;;;;5074014;28;20206;-68
2022/04/09 11:37:19;;;;;;;3.90;3.17;;;11.20;79.30;;;;;;5074352;28;20207;-68
2022/04/09 11:39:48;;;;;;;4.82;3.35;;;11.10;79.60;;;;;;5074224;28;20237;-68
2022/04/09 11:42:15;;;;;;;4.00;3.30;;;10.90;80.20;;;;;;5074063;28;20207;-68
2022/04/09 11:44:43;;;;;;;4.60;3.90;;;11.20;82.00;;;;;;5073897;28;20209;-68
2022/04/09 11:47:13;;;;;;;5.03;3.78;;;11.10;78.00;;;;;;5074206;28;20207;-68
2022/04/09 11:49:41;;;;;;;3.67;3.30;;;11.10;81.40;;;;;;5074097;28;20290;-68
2022/04/09 11:52:08;;;;;;;3.85;3.40;;;11.10;82.90;;;;;;5074549;28;20202;-68
2022/04/09 11:54:38;;;;;;;6.13;3.55;;;11.20;80.60;;;;;;5073950;28;20560;-68
2022/04/09 11:57:09;;;;;;;3.15;2.85;;;11.20;81.70;;;;;;5073927;28;20202;-68
2022/04/09 11:59:37;;;;;;;4.40;4.00;;;10.70;78.80;;;;;;5074049;28;20577;-68
2022/04/09 12:02:16;;;;;;;4.60;3.60;;;9.90;80.80;;;;;;5073941;28;20202;-68
2022/04/09 12:04:43;;;;;;;7.18;4.18;;;9.40;82.10;;;;;;5073695;28;20206;-68
2022/04/09 12:07:10;;;;;;;6.38;4.10;;;9.00;86.60;;;;;;5073896;28;20202;-68
2022/04/09 12:09:37;;;;;;;5.10;4.22;;;9.10;88.40;;;;;;5073819;28;20209;-68
2022/04/09 12:12:05;;;;;;;5.78;4.22;;;9.10;89.20;;;;;;5073906;28;20209;-67
2022/04/09 12:14:33;;;;;;;4.07;3.55;;;9.00;89.90;;;;;;5073398;28;20202;-68
2022/04/09 12:17:10;;;;;;;6.15;4.10;;;9.00;88.80;;;;;;5073793;28;20607;-68
2022/04/09 12:19:38;;;;;;;4.05;3.65;;;9.10;90.60;;;;;;5073592;28;20226;-68
2022/04/09 12:22:17;;;;;;;4.20;3.80;;;9.30;88.00;;;;;;5074314;28;20271;-68
2022/04/09 12:24:49;;;;;;;7.68;3.53;;;9.60;89.50;;;;;;5073306;28;20206;-68
2022/04/09 12:27:15;;;;;;;4.00;3.70;;;9.70;82.30;;;;;;5073613;28;20661;-68
2022/04/09 12:29:53;;;;;;;6.47;4.25;;;9.50;84.40;;;;;;5073411;28;20221;-68
2022/04/09 12:32:25;;;;;;;4.45;3.47;;;9.70;87.00;;;;;;5073916;28;20183;-68
2022/04/09 12:34:56;;;;;;;4.72;3.88;;;9.90;85.60;;;;;;5073419;28;20202;-68
2022/04/09 12:37:24;;;;;;;4.72;3.80;;;10.20;83.90;;;;;;5073520;28;20199;-68
2022/04/09 12:39:51;;;;;;;3.90;3.50;;;10.30;84.50;;;;;;5073582;28;20708;-68
2022/04/09 12:42:31;;;;;;;4.65;3.83;;;10.50;84.80;;;;;;5073277;28;20199;-68
2022/04/09 12:45:12;;;;;;;5.70;3.95;;;10.50;80.00;;;;;;5073337;28;20569;-68
2022/04/09 12:47:40;;;;;;;4.55;3.50;;;10.40;78.80;;;;;;5073363;28;20603;-68
2022/04/09 12:50:19;;;;;;;3.95;3.30;;;10.10;77.50;;;;;;5073448;28;20313;-68
2022/04/09 12:52:46;;;;;;;5.70;3.00;;;9.80;77.80;;;;;;5073353;28;20209;-68
2022/04/09 12:55:16;;;;;;;4.00;3.60;;;9.50;77.60;;;;;;5073300;28;20672;-68
2022/04/09 12:57:43;;;;;;;4.00;3.60;;;9.60;81.90;;;;;;5073386;28;20203;-68
2022/04/09 13:00:11;;;;;;;4.65;3.60;;;9.80;83.00;;;;;;5073349;28;20241;-68